• Join FlightAware (Why Join?)
  • Login
  • US Flag 
06:46PM EDT


 

Airport Tracker/Info


-or-


 

Live Flight TrackerFlight Track Log ✈ AIE860 ✈ 2013年 05月 11日 ✈ CYZG - CYGL

Flight Track Log - Related Links

Times and Time Zones

All times are in EDT time to prevent confusion due to time zone crossing. See the AIE860 flight status page for this flight to view local times or setup timezone preferences in your user account.

Time Position Orientation Groundspeed Altitude Reporting Facility
EDT Latitude Longitude Course Direction KTS MPH feet Rate Location/Type
04:57PM 61.3959 -75.8993 188° South  Level Estimated
04:58PM 61.3304 -75.9150 187° South  Level FlightAware Approximate
04:59PM 61.2649 -75.9306 187° South  Level FlightAware Approximate
05:00PM 61.1995 -75.9462 187° South  Level FlightAware Approximate
05:01PM 61.1342 -75.9649 187° South  Level Estimated
05:02PM 61.0688 -75.9818 187° South  Level FlightAware Approximate
05:03PM 61.0034 -75.9987 187° South  Level FlightAware Approximate
05:04PM 60.9381 -76.0172 188° South  Level Estimated
05:05PM 60.8728 -76.0361 188° South  Level FlightAware Approximate
05:06PM 60.8075 -76.0549 188° South  Level FlightAware Approximate
05:07PM 60.7422 -76.0732 188° South  Level Estimated
05:08PM 60.6769 -76.0913 188° South  Level FlightAware Approximate
05:09PM 60.6116 -76.1093 188° South  Level FlightAware Approximate
05:10PM 60.5463 -76.1272 188° South  Level FlightAware Approximate
05:11PM 60.4810 -76.1451 188° South  Level FlightAware Approximate
05:12PM 60.4156 -76.1629 188° South  Level FlightAware Approximate
05:13PM 60.3503 -76.1806 188° South  Level FlightAware Approximate
05:14PM 60.2850 -76.1982 188° South  Level FlightAware Approximate
05:15PM 60.2197 -76.2158 188° South  Level FlightAware Approximate
05:16PM 60.1543 -76.2333 188° South  Level FlightAware Approximate
05:17PM 60.0890 -76.2508 188° South  Level FlightAware Approximate
05:18PM 60.0236 -76.2681 188° South  Level FlightAware Approximate
05:19PM 59.9583 -76.2854 188° South  Level FlightAware Approximate
05:20PM 59.8930 -76.3027 188° South  Level FlightAware Approximate
05:21PM 59.8276 -76.3198 188° South  Level FlightAware Approximate
05:22PM 59.7623 -76.3369 188° South  Level FlightAware Approximate
05:23PM 59.6969 -76.3540 187° South  Level FlightAware Approximate
05:24PM 59.6316 -76.3709 187° South  Level FlightAware Approximate
05:25PM 59.5662 -76.3878 187° South  Level FlightAware Approximate
05:26PM 59.5009 -76.4046 187° South  Level FlightAware Approximate
05:27PM 59.4355 -76.4214 187° South  Level FlightAware Approximate
05:28PM 59.3701 -76.4381 187° South  Level FlightAware Approximate
05:29PM 59.3048 -76.4548 187° South  Level FlightAware Approximate
05:30PM 59.2394 -76.4713 187° South  Level FlightAware Approximate
05:31PM 59.1740 -76.4878 187° South  Level FlightAware Approximate
05:32PM 59.1087 -76.5043 187° South  Level FlightAware Approximate
05:33PM 59.0433 -76.5207 187° South  Level FlightAware Approximate
05:34PM 58.9779 -76.5370 187° South  Level FlightAware Approximate
05:35PM 58.9126 -76.5532 187° South  Level FlightAware Approximate
05:36PM 58.8472 -76.5694 187° South  Level FlightAware Approximate
05:37PM 58.7818 -76.5856 187° South  Level FlightAware Approximate
05:38PM 58.7164 -76.6017 187° South  Level FlightAware Approximate
05:39PM 58.6510 -76.6177 187° South  Level FlightAware Approximate
05:40PM 58.5856 -76.6336 187° South  Level FlightAware Approximate
05:41PM 58.5202 -76.6495 187° South  Level FlightAware Approximate
05:42PM 58.4549 -76.6654 187° South  Level FlightAware Approximate
05:43PM 58.3895 -76.6812 187° South  Level FlightAware Approximate
05:44PM 58.3241 -76.6969 187° South  Level FlightAware Approximate
05:45PM 58.2587 -76.7125 187° South  Level FlightAware Approximate
05:46PM 58.1933 -76.7281 187° South  Level FlightAware Approximate
05:47PM 58.1279 -76.7437 187° South  Level FlightAware Approximate
05:48PM 58.0625 -76.7592 187° South  Level FlightAware Approximate
05:49PM 57.9971 -76.7746 187° South  Level FlightAware Approximate
05:50PM 57.9317 -76.7900 187° South  Level FlightAware Approximate
05:51PM 57.8663 -76.8053 187° South  Level FlightAware Approximate
05:52PM 57.8009 -76.8206 187° South  Level FlightAware Approximate
05:53PM 57.7355 -76.8358 187° South  Level FlightAware Approximate
05:54PM 57.6701 -76.8510 187° South  Level FlightAware Approximate
05:55PM 57.6046 -76.8661 187° South  Level FlightAware Approximate
05:56PM 57.5392 -76.8811 187° South  Level FlightAware Approximate
05:57PM 57.4738 -76.8961 187° South  Level FlightAware Approximate
05:58PM 57.4084 -76.9110 187° South  Level FlightAware Approximate
05:59PM 57.3430 -76.9259 187° South  Level FlightAware Approximate
06:00PM 57.2775 -76.9408 187° South  Level FlightAware Approximate
06:01PM 57.2121 -76.9555 187° South  Level FlightAware Approximate
06:02PM 57.1467 -76.9703 187° South  Level FlightAware Approximate
06:03PM 57.0813 -76.9849 187° South  Level FlightAware Approximate
06:04PM 57.0158 -76.9996 187° South  Level FlightAware Approximate
06:05PM 56.9504 -77.0142 187° South  Level FlightAware Approximate
06:06PM 56.8850 -77.0287 187° South  Level FlightAware Approximate
06:07PM 56.8195 -77.0431 187° South  Level FlightAware Approximate
06:08PM 56.7541 -77.0576 187° South  Level FlightAware Approximate
06:09PM 56.6887 -77.0719 187° South  Level FlightAware Approximate
06:10PM 56.6232 -77.0863 187° South  Level FlightAware Approximate
06:11PM 56.5578 -77.1005 187° South  Level FlightAware Approximate
06:12PM 56.4923 -77.1147 187° South  Level FlightAware Approximate
06:13PM 56.4269 -77.1289 187° South  Level FlightAware Approximate
06:14PM 56.3615 -77.1431 187° South  Level FlightAware Approximate
06:15PM 56.2960 -77.1571 187° South  Level FlightAware Approximate
06:16PM 56.2305 -77.1712 187° South  Level FlightAware Approximate
06:17PM 56.1651 -77.1851 187° South  Level FlightAware Approximate
06:17PM 56.4833 -77.1500 186° South 220 253 24,000  Level Montreal Center
06:18PM 56.0997 -77.1991 187° South  Level FlightAware Approximate
06:18PM 56.4167 -77.1500 180° South 230 265 24,000  Level Montreal Center
06:19PM 56.0342 -77.2130 187° South  Level FlightAware Approximate
06:19PM 56.3667 -77.1833 200° South 230 265 24,000  Level Montreal Center
06:20PM 55.9688 -77.2271 186° South  Level Estimated
06:20PM 56.3000 -77.1667 172° South 230 265 24,000  Level Montreal Center
06:21PM 55.9033 -77.2403 186° South  Level FlightAware Approximate
06:21PM 56.2333 -77.1667 180° South 230 265 24,000  Level Montreal Center
06:22PM 55.8378 -77.2534 186° South  Level FlightAware Approximate
06:22PM 56.1833 -77.2000 200° South 220 253 24,000  Level Montreal Center
06:23PM 56.1167 -77.2000 180° South 230 265 24,000  Level Montreal Center
06:24PM 56.0500 -77.2333 196° South 220 253 24,000  Level Montreal Center
06:25PM 55.9833 -77.2167 172° South 230 265 24,000  Level Montreal Center
06:27PM 55.8852 -77.2377 187° South  Level FlightAware Approximate
06:28PM 55.7833 -77.2833 187° South 230 265 24,000  Level Montreal Center
06:29PM 55.7167 -77.3000 188° South 230 265 24,000  Level Montreal Center
06:30PM 55.6500 -77.3000 180° South 230 265 24,000  Level Montreal Center
06:31PM 55.6000 -77.3333 201° Southwest 230 265 24,000  Level Montreal Center
06:32PM 55.5333 -77.3333 180° South 230 265 24,000  Level Montreal Center
06:33PM 55.4667 -77.3500 188° South 230 265 24,000  Level Montreal Center
06:34PM 55.4000 -77.3500 180° South 230 265 24,000  Level Montreal Center
06:35PM 55.3500 -77.3833 201° Southwest 230 265 24,000  Level Montreal Center
06:36PM 55.2833 -77.3833 180° South 230 265 24,000  Level Montreal Center
06:37PM 55.2167 -77.4000 188° South 230 265 24,000  Level Montreal Center
06:38PM 55.1500 -77.4000 180° South 230 265 24,000  Level Montreal Center
06:39PM 55.0833 -77.4333 196° South 230 265 24,000  Level Montreal Center
06:40PM 55.0167 -77.4333 180° South 230 265 24,000  Level Montreal Center
06:41PM 54.9500 -77.4500 188° South 230 265 24,000  Level Montreal Center
06:42PM 54.9000 -77.4500 180° South 230 265 24,000  Level Montreal Center
06:43PM 54.8333 -77.4833 196° South 230 265 24,000  Level Montreal Center
06:44PM 54.7667 -77.4833 180° South 230 265 24,000  Level Montreal Center
06:45PM 54.7000 -77.5000 188° South 230 265 24,000  Level Montreal Center
06:46PM 54.6500 -77.5000 180° South 230 265 24,000 -660 Level Montreal Center
06:47PM 54.5833 -77.5333 196° South 240 276 22,700 -1,560 Descending Montreal Center
06:48PM 54.5167 -77.5333 180° South 260 299 20,900 -1,800 Descending Montreal Center
06:49PM 54.4167 -77.5500 186° South 270 311 19,100 -1,800 Descending Montreal Center
06:50PM 54.3500 -77.5833 196° South 270 311 17,300 -1,800 Descending Montreal Center
06:51PM 54.2667 -77.5833 180° South 270 311 15,600 -1,800 Descending Montreal Center
06:52PM 54.2000 -77.6000 188° South 270 311 13,700 -1,980 Descending Montreal Center
06:53PM 54.1167 -77.6333 193° South 280 322 11,700 -1,860 Descending Montreal Center
06:54PM 54.0333 -77.6333 180° South 270 311 10,000 -1,800 Descending Montreal Center
06:55PM 53.9667 -77.6500 188° South 270 311 8,200 -1,740 Descending Montreal Center
06:56PM 53.9000 -77.6500 180° South 260 299 6,600 -1,500 Descending Montreal Center
06:57PM 53.8333 -77.6833 196° South 250 288 5,300 -1,380 Descending Montreal Center
06:58PM 53.7667 -77.7000 188° South 230 265 3,900 -1,260 Descending Montreal Center
06:59PM 53.7167 -77.7333 202° Southwest 200 230 2,800 -900 Descending Montreal Center
07:00PM 53.6833 -77.7500 196° South 160 184 2,100 -720 Descending Montreal Center
07:02PM 53.6253 -77.7042 188° South  Level Estimated